Time;durP1;ratioP1;P1;durP2;ratioP2;P2;SDS_P1;SDS_P2;PMS_P1;PMS_P2;Temp;Humidity;BMP_temperature;BMP_pressure;BME280_temperature;BME280_humidity;BME280_pressure;Samples;Min_cycle;Max_cycle;Signal;HPM_P1;HPM_P2
2022/11/30 00:01:22;;;;;;;79.80;33.70;;;;;;;-0.83;100.00;99800.64;106056;1285;58996;-73
2022/11/30 00:03:51;;;;;;;81.60;35.30;;;;;;;-0.86;100.00;99801.87;106059;1288;73891;-73
2022/11/30 00:06:23;;;;;;;83.20;37.00;;;;;;;-0.86;100.00;99797.16;105884;1292;58839;-73
2022/11/30 00:08:56;;;;;;;95.70;38.20;;;;;;;-0.85;100.00;99797.84;106087;1291;58907;-73
2022/11/30 00:11:25;;;;;;;78.40;34.60;;;;;;;-0.85;100.00;99798.02;106049;1289;74783;-73
2022/11/30 00:13:51;;;;;;;86.30;36.30;;;;;;;-0.85;100.00;99798.02;106043;1287;61189;-73
2022/11/30 00:16:17;;;;;;;89.20;38.20;;;;;;;-0.85;100.00;99803.61;106063;1289;63927;-73
2022/11/30 00:18:43;;;;;;;86.30;38.30;;;;;;;-0.86;100.00;99804.84;106030;1288;58883;-74
2022/11/30 00:21:12;;;;;;;82.70;36.30;;;;;;;-0.85;100.00;99806.74;106043;1288;58990;-73
2022/11/30 00:23:40;;;;;;;85.20;36.00;;;;;;;-0.83;100.00;99803.42;105997;1291;64912;-73
2022/11/30 00:26:09;;;;;;;81.70;35.80;;;;;;;-0.83;100.00;99805.16;105883;1291;67477;-73
2022/11/30 00:28:36;;;;;;;87.40;37.60;;;;;;;-0.83;100.00;99807.95;106049;1287;72212;-73
2022/11/30 00:31:05;;;;;;;81.60;37.90;;;;;;;-0.82;100.00;99809.88;105898;1298;59146;-72
2022/11/30 00:33:33;;;;;;;79.80;33.00;;;;;;;-0.81;100.00;99814.74;106068;1288;59372;-73
2022/11/30 00:36:01;;;;;;;77.50;33.50;;;;;;;-0.85;100.00;99816.88;106077;1287;67193;-73
2022/11/30 00:38:29;;;;;;;94.10;38.60;;;;;;;-0.88;100.00;99816.89;106070;1288;59902;-73
2022/11/30 00:40:55;;;;;;;85.50;36.90;;;;;;;-0.89;100.00;99821.08;105915;1284;64339;-73
2022/11/30 00:43:22;;;;;;;76.80;35.00;;;;;;;-0.91;100.00;99818.48;106067;1297;58960;-73
2022/11/30 00:45:48;;;;;;;86.70;35.40;;;;;;;-0.92;100.00;99816.73;106083;1282;58931;-73
2022/11/30 00:48:14;;;;;;;87.00;35.70;;;;;;;-0.95;100.00;99814.67;106070;1289;58951;-73
2022/11/30 00:50:41;;;;;;;93.30;39.50;;;;;;;-0.97;100.00;99809.29;106076;1287;58964;-73
2022/11/30 00:53:06;;;;;;;80.10;33.60;;;;;;;-0.97;100.00;99811.20;106051;1282;58905;-73
2022/11/30 00:55:33;;;;;;;86.70;34.80;;;;;;;-0.97;100.00;99814.86;106053;1281;59000;-73
2022/11/30 00:57:59;;;;;;;90.10;36.50;;;;;;;-0.98;100.00;99818.17;106075;1282;58950;-72
2022/11/30 01:00:26;;;;;;;83.90;36.50;;;;;;;-0.97;100.00;99817.83;106081;1289;58930;-73
2022/11/30 01:02:53;;;;;;;91.90;41.70;;;;;;;-0.95;100.00;99818.86;106059;1281;59270;-73
2022/11/30 01:05:22;;;;;;;98.50;39.70;;;;;;;-0.94;100.00;99816.59;106050;1288;59001;-73
2022/11/30 01:07:48;;;;;;;86.70;38.60;;;;;;;-0.94;100.00;99814.85;105918;1297;58875;-73
2022/11/30 01:10:14;;;;;;;78.50;37.60;;;;;;;-0.94;100.00;99818.67;106064;1287;58990;-73
2022/11/30 01:12:40;;;;;;;92.20;40.10;;;;;;;-0.92;100.00;99817.45;106084;1283;58894;-73
2022/11/30 01:15:06;;;;;;;77.10;34.20;;;;;;;-0.92;100.00;99818.14;106058;1289;58952;-73
2022/11/30 01:17:32;;;;;;;79.70;35.40;;;;;;;-0.93;100.00;99812.56;106054;1289;58792;-74
2022/11/30 01:19:59;;;;;;;89.10;38.10;;;;;;;-0.96;100.00;99806.30;106034;1288;58902;-74
2022/11/30 01:22:25;;;;;;;88.20;35.00;;;;;;;-0.96;100.00;99807.70;105341;1281;1002923;-74
2022/11/30 01:24:51;;;;;;;88.40;37.30;;;;;;;-0.95;100.00;99807.70;106058;1288;58904;-74
2022/11/30 01:27:17;;;;;;;97.60;40.70;;;;;;;-0.93;100.00;99808.91;106075;1288;58864;-73
2022/11/30 01:29:42;;;;;;;94.40;40.60;;;;;;;-0.92;100.00;99810.66;106039;1289;58979;-73
2022/11/30 01:32:08;;;;;;;84.30;36.60;;;;;;;-0.91;100.00;99812.38;106113;1289;58943;-74
2022/11/30 01:34:34;;;;;;;89.10;38.70;;;;;;;-0.90;100.00;99811.30;106059;1288;67069;-72
2022/11/30 01:37:00;;;;;;;98.00;40.60;;;;;;;-0.90;100.00;99812.36;106070;1295;59137;-73
2022/11/30 01:39:26;;;;;;;89.80;41.00;;;;;;;-0.90;100.00;99812.19;106052;1283;58884;-73
2022/11/30 01:41:53;;;;;;;95.60;40.40;;;;;;;-0.89;100.00;99808.00;106070;1289;58986;-73
2022/11/30 01:44:25;;;;;;;102.40;41.50;;;;;;;-0.87;100.00;99808.50;106069;1289;58903;-73
2022/11/30 01:47:01;;;;;;;98.10;39.40;;;;;;;-0.86;100.00;99811.13;106052;1288;66840;-72
2022/11/30 01:49:34;;;;;;;93.70;37.90;;;;;;;-0.88;100.00;99817.41;105923;1288;60936;-73
2022/11/30 01:52:04;;;;;;;102.50;41.20;;;;;;;-0.89;100.00;99821.60;105924;1298;63476;-72
2022/11/30 01:54:36;;;;;;;97.60;42.50;;;;;;;-0.92;100.00;99817.79;106040;1289;59870;-72
2022/11/30 01:57:09;;;;;;;94.60;40.30;;;;;;;-0.93;100.00;99818.15;105907;1299;58865;-73
2022/11/30 01:59:35;;;;;;;91.50;37.80;;;;;;;-0.93;100.00;99819.55;105991;1287;67342;-73
2022/11/30 02:02:01;;;;;;;82.30;33.20;;;;;;;-0.93;100.00;99820.77;106092;1287;58806;-72
2022/11/30 02:04:30;;;;;;;92.80;40.20;;;;;;;-0.95;100.00;99817.64;106079;1289;59019;-73
2022/11/30 02:06:58;;;;;;;92.60;39.70;;;;;;;-0.97;100.00;99817.48;106072;1289;58930;-72
2022/11/30 02:09:26;;;;;;;99.00;38.80;;;;;;;-0.99;100.00;99824.29;106080;1290;58916;-72
2022/11/30 02:11:52;;;;;;;88.00;38.70;;;;;;;-1.01;100.00;99819.94;105672;1296;66979;-72
2022/11/30 02:14:18;;;;;;;94.50;39.90;;;;;;;-1.01;100.00;99819.59;106063;1289;58840;-72
2022/11/30 02:17:12;;;;;;;90.20;37.00;;;;;;;-1.02;100.00;99814.55;106056;1289;59111;-73
2022/11/30 02:19:58;;;;;;;87.50;35.50;;;;;;;-1.04;100.00;99812.98;106056;1288;58837;-73
2022/11/30 02:23:01;;;;;;;102.00;40.50;;;;;;;-1.05;100.00;99816.30;105152;1290;1002232;-73
2022/11/30 02:25:58;;;;;;;100.00;41.00;;;;;;;-1.05;100.00;99814.91;106105;1289;65991;-75
2022/11/30 02:28:51;;;;;;;93.90;40.50;;;;;;;-1.06;100.00;99814.40;106072;1288;68907;-72
2022/11/30 02:31:24;;;;;;;86.80;37.50;;;;;;;-1.09;100.00;99822.45;106073;1288;62917;-75
2022/11/30 02:33:51;;;;;;;90.70;39.20;;;;;;;-1.11;100.00;99830.13;106051;1290;59504;-74
2022/11/30 02:36:19;;;;;;;91.40;38.20;;;;;;;-1.13;100.00;99828.73;106061;1289;58939;-73
2022/11/30 02:38:46;;;;;;;93.70;38.10;;;;;;;-1.15;100.00;99828.76;105908;1292;75833;-72
2022/11/30 02:41:12;;;;;;;89.90;36.10;;;;;;;-1.15;100.00;99828.93;106052;1294;59079;-72
2022/11/30 02:43:38;;;;;;;88.90;37.00;;;;;;;-1.16;100.00;99826.85;106050;1288;59390;-73
2022/11/30 02:46:15;;;;;;;92.20;37.40;;;;;;;-1.16;100.00;99823.35;106071;1295;58933;-73
2022/11/30 02:48:48;;;;;;;103.00;42.80;;;;;;;-1.15;100.00;99826.32;106060;1287;58925;-73
2022/11/30 02:51:18;;;;;;;80.40;35.20;;;;;;;-1.16;100.00;99829.81;106040;1288;67006;-73
2022/11/30 02:53:46;;;;;;;88.20;37.70;;;;;;;-1.18;100.00;99830.52;105766;1289;69733;-73
2022/11/30 02:56:12;;;;;;;85.70;36.10;;;;;;;-1.18;100.00;99832.80;106041;1289;62737;-73
2022/11/30 02:58:38;;;;;;;85.10;34.80;;;;;;;-1.17;100.00;99838.54;106052;1289;59081;-73
2022/11/30 03:01:04;;;;;;;86.40;35.50;;;;;;;-1.18;100.00;99834.36;106039;1287;59116;-72
2022/11/30 03:03:31;;;;;;;90.10;39.00;;;;;;;-1.18;100.00;99834.17;106058;1288;59025;-73
2022/11/30 03:05:57;;;;;;;78.20;35.30;;;;;;;-1.18;100.00;99832.61;106053;1289;58939;-74
2022/11/30 03:08:24;;;;;;;88.10;38.00;;;;;;;-1.17;100.00;99830.33;106072;1289;58810;-73
2022/11/30 03:10:50;;;;;;;90.20;38.40;;;;;;;-1.15;100.00;99831.20;106025;1295;59339;-74
2022/11/30 03:13:16;;;;;;;66.60;32.10;;;;;;;-1.15;100.00;99835.90;106058;1288;58979;-73
2022/11/30 03:15:42;;;;;;;70.60;31.90;;;;;;;-1.16;100.00;99835.55;105063;1291;1003041;-73
2022/11/30 03:18:09;;;;;;;68.00;31.30;;;;;;;-1.17;100.00;99840.27;106064;1289;58992;-75
2022/11/30 03:20:39;;;;;;;61.00;28.80;;;;;;;-1.14;100.00;99843.92;106062;1290;58898;-73
2022/11/30 03:23:05;;;;;;;65.00;31.70;;;;;;;-1.13;100.00;99842.70;106049;1289;58951;-73
2022/11/30 03:25:32;;;;;;;73.50;33.00;;;;;;;-1.14;100.00;99843.23;106060;1295;59764;-73
2022/11/30 03:27:59;;;;;;;68.90;34.60;;;;;;;-1.14;100.00;99844.96;106070;1295;58935;-73
2022/11/30 03:30:25;;;;;;;67.50;31.80;;;;;;;-1.13;100.00;99849.84;106054;1285;61286;-73
2022/11/30 03:32:51;;;;;;;75.00;33.80;;;;;;;-1.15;100.00;99852.11;106037;1291;58983;-73
2022/11/30 03:35:18;;;;;;;85.30;36.70;;;;;;;-1.13;100.00;99852.98;106029;1281;59038;-73
2022/11/30 03:37:45;;;;;;;74.60;34.30;;;;;;;-1.11;100.00;99853.48;106054;1287;58915;-73
2022/11/30 03:40:13;;;;;;;68.30;33.30;;;;;;;-1.11;100.00;99859.59;105905;1292;67185;-73
2022/11/30 03:42:39;;;;;;;64.90;32.40;;;;;;;-1.12;100.00;99863.26;106022;1289;69705;-72
2022/11/30 03:45:06;;;;;;;65.80;33.00;;;;;;;-1.11;100.00;99864.98;106031;1289;59028;-73
2022/11/30 03:47:32;;;;;;;66.40;30.30;;;;;;;-1.11;100.00;99864.83;105778;1295;59032;-72
2022/11/30 03:49:57;;;;;;;57.70;30.50;;;;;;;-1.11;100.00;99863.78;106004;1288;58914;-72
2022/11/30 03:52:24;;;;;;;58.40;29.20;;;;;;;-1.12;100.00;99866.05;105715;1300;59344;-73
2022/11/30 03:54:51;;;;;;;64.00;30.40;;;;;;;-1.13;100.00;99866.40;105723;1295;59164;-73
2022/11/30 03:57:17;;;;;;;64.70;30.10;;;;;;;-1.17;100.00;99865.22;105326;1295;1002268;-72
2022/11/30 03:59:43;;;;;;;63.00;29.20;;;;;;;-1.20;100.00;99861.91;106066;1289;58964;-73
2022/11/30 04:02:09;;;;;;;69.90;30.70;;;;;;;-1.24;100.00;99854.96;106067;1288;59855;-73
2022/11/30 04:04:34;;;;;;;61.50;30.60;;;;;;;-1.25;100.00;99858.63;105784;1291;59686;-73
2022/11/30 04:07:01;;;;;;;72.40;31.60;;;;;;;-1.26;100.00;99859.67;106055;1289;58911;-72
2022/11/30 04:09:30;;;;;;;72.80;32.70;;;;;;;-1.29;100.00;99860.39;106046;1289;59077;-73
2022/11/30 04:11:55;;;;;;;71.90;33.20;;;;;;;-1.30;100.00;99857.09;106060;1291;58877;-74
2022/11/30 04:14:21;;;;;;;66.80;31.90;;;;;;;-1.29;100.00;99859.17;106069;1289;58836;-74
2022/11/30 04:16:48;;;;;;;65.00;31.00;;;;;;;-1.29;100.00;99853.60;106085;1292;59039;-73
2022/11/30 04:19:14;;;;;;;72.30;32.60;;;;;;;-1.30;100.00;99857.08;106076;1281;59090;-73
2022/11/30 04:21:40;;;;;;;69.10;32.90;;;;;;;-1.31;100.00;99861.45;106057;1295;58890;-73
2022/11/30 04:24:07;;;;;;;72.50;32.30;;;;;;;-1.33;100.00;99860.92;106064;1288;58794;-73
2022/11/30 04:26:37;;;;;;;67.40;30.60;;;;;;;-1.34;100.00;99866.85;106069;1287;59127;-73
2022/11/30 04:29:04;;;;;;;69.30;33.70;;;;;;;-1.36;100.00;99863.04;105678;1295;75384;-74
2022/11/30 04:31:30;;;;;;;66.20;31.50;;;;;;;-1.38;100.00;99863.57;106079;1295;58801;-73
2022/11/30 04:33:55;;;;;;;71.10;31.80;;;;;;;-1.39;100.00;99862.89;106055;1296;59049;-73
2022/11/30 04:36:22;;;;;;;74.00;35.00;;;;;;;-1.39;100.00;99857.30;106060;1295;58930;-73
2022/11/30 04:38:48;;;;;;;74.00;35.20;;;;;;;-1.38;100.00;99868.80;106039;1281;59022;-73
2022/11/30 04:41:15;;;;;;;74.80;35.00;;;;;;;-1.38;100.00;99865.66;106058;1288;59035;-73
2022/11/30 04:43:41;;;;;;;67.70;32.10;;;;;;;-1.39;100.00;99870.19;104579;1288;1002290;-73
2022/11/30 04:46:07;;;;;;;70.20;34.70;;;;;;;-1.39;100.00;99870.90;106080;1289;58936;-73
2022/11/30 04:48:33;;;;;;;69.50;31.70;;;;;;;-1.37;100.00;99867.05;106058;1289;58867;-74
2022/11/30 04:51:01;;;;;;;68.60;33.40;;;;;;;-1.36;100.00;99862.69;105878;1291;59206;-73
2022/11/30 04:53:27;;;;;;;73.70;35.20;;;;;;;-1.34;100.00;99867.56;105794;1290;59031;-74
2022/11/30 04:55:53;;;;;;;61.90;30.90;;;;;;;-1.35;100.00;99863.56;106049;1281;58905;-73
2022/11/30 04:58:20;;;;;;;73.50;34.60;;;;;;;-1.38;100.00;99864.44;106038;1280;58894;-73
2022/11/30 05:00:47;;;;;;;76.80;33.60;;;;;;;-1.38;100.00;99865.66;106043;1289;58800;-73
2022/11/30 05:03:13;;;;;;;65.50;31.60;;;;;;;-1.37;100.00;99872.81;106068;1288;59031;-73
2022/11/30 05:05:38;;;;;;;67.60;32.90;;;;;;;-1.35;100.00;99879.41;106083;1282;59023;-73
2022/11/30 05:08:05;;;;;;;73.30;35.30;;;;;;;-1.34;100.00;99882.38;106066;1282;59278;-74
2022/11/30 05:10:32;;;;;;;64.90;33.40;;;;;;;-1.33;100.00;99883.24;106063;1297;58948;-73
2022/11/30 05:12:58;;;;;;;66.70;31.60;;;;;;;-1.31;100.00;99884.83;106043;1281;58999;-74
2022/11/30 05:15:24;;;;;;;62.20;30.70;;;;;;;-1.31;100.00;99886.73;106055;1288;58987;-74
2022/11/30 05:17:50;;;;;;;66.00;33.00;;;;;;;-1.33;100.00;99884.98;106069;1287;59079;-72
2022/11/30 05:20:16;;;;;;;66.50;31.10;;;;;;;-1.32;100.00;99887.95;106108;1282;58959;-73
2022/11/30 05:22:42;;;;;;;60.00;30.40;;;;;;;-1.34;100.00;99888.14;106077;1288;58977;-73
2022/11/30 05:25:09;;;;;;;58.60;29.90;;;;;;;-1.34;100.00;99891.80;106042;1294;59177;-73
2022/11/30 05:27:35;;;;;;;60.10;29.10;;;;;;;-1.35;100.00;99895.80;105900;1292;65837;-74
2022/11/30 05:30:02;;;;;;;61.40;29.60;;;;;;;-1.36;100.00;99893.02;106057;1295;58729;-73
2022/11/30 05:32:28;;;;;;;63.20;30.90;;;;;;;-1.37;100.00;99897.03;106044;1288;71506;-73
2022/11/30 05:34:54;;;;;;;60.80;30.20;;;;;;;-1.38;100.00;99900.17;105309;1289;1002474;-73
2022/11/30 05:37:20;;;;;;;65.00;31.30;;;;;;;-1.38;100.00;99905.92;106079;1290;58768;-73
2022/11/30 05:39:47;;;;;;;59.90;29.70;;;;;;;-1.37;100.00;99902.08;106015;1292;58966;-73
2022/11/30 05:42:13;;;;;;;56.30;30.40;;;;;;;-1.37;100.00;99900.36;106050;1288;58967;-73
2022/11/30 05:44:39;;;;;;;54.50;28.70;;;;;;;-1.37;100.00;99899.48;106046;1295;58838;-73
2022/11/30 05:47:06;;;;;;;63.70;30.50;;;;;;;-1.39;100.00;99898.08;106070;1289;58988;-73
2022/11/30 05:49:32;;;;;;;58.40;30.10;;;;;;;-1.40;100.00;99900.36;106087;1287;59076;-73
2022/11/30 05:51:58;;;;;;;55.10;29.10;;;;;;;-1.43;100.00;99907.85;105318;1281;1002168;-73
2022/11/30 05:54:24;;;;;;;53.20;27.80;;;;;;;-1.46;100.00;99908.56;106062;1289;59764;-73
2022/11/30 05:56:51;;;;;;;56.80;29.90;;;;;;;-1.47;100.00;99911.55;105861;1278;60307;-73
2022/11/30 05:59:17;;;;;;;55.30;29.00;;;;;;;-1.47;100.00;99916.77;106043;1280;59331;-74
2022/11/30 06:01:43;;;;;;;59.50;29.80;;;;;;;-1.47;100.00;99914.85;106073;1281;59318;-74
2022/11/30 06:04:09;;;;;;;43.80;22.60;;;;;;;-1.48;100.00;99915.55;106085;1289;58933;-74
2022/11/30 06:06:35;;;;;;;47.70;25.80;;;;;;;-1.52;100.00;99915.20;106067;1288;58942;-74
2022/11/30 06:09:01;;;;;;;54.00;27.90;;;;;;;-1.53;100.00;99915.05;106054;1289;58945;-74
2022/11/30 06:11:27;;;;;;;57.90;30.30;;;;;;;-1.54;100.00;99912.44;106089;1289;58897;-74
2022/11/30 06:13:53;;;;;;;50.20;28.10;;;;;;;-1.54;100.00;99915.05;106021;1293;59086;-73
2022/11/30 06:16:18;;;;;;;52.00;26.20;;;;;;;-1.55;100.00;99914.02;105804;1291;58987;-72
2022/11/30 06:18:44;;;;;;;64.00;34.60;;;;;;;-1.57;100.00;99908.27;106003;1295;59193;-73
2022/11/30 06:21:10;;;;;;;58.40;29.20;;;;;;;-1.57;100.00;99910.52;106062;1287;58889;-73
2022/11/30 06:23:37;;;;;;;60.40;31.10;;;;;;;-1.56;100.00;99909.47;106061;1281;59271;-73
2022/11/30 06:26:04;;;;;;;59.90;31.20;;;;;;;-1.55;100.00;99908.61;106055;1289;58886;-73
2022/11/30 06:28:31;;;;;;;61.50;31.80;;;;;;;-1.56;100.00;99912.60;106048;1287;59209;-73
2022/11/30 06:31:00;;;;;;;60.80;30.50;;;;;;;-1.56;100.00;99915.21;106073;1282;58927;-73
2022/11/30 06:33:26;;;;;;;47.70;25.20;;;;;;;-1.55;100.00;99920.10;105906;1291;61104;-73
2022/11/30 06:35:52;;;;;;;54.50;29.30;;;;;;;-1.54;100.00;99922.36;106040;1287;59082;-73
2022/11/30 06:38:19;;;;;;;55.40;29.90;;;;;;;-1.54;100.00;99924.11;106061;1288;58876;-73
2022/11/30 06:40:45;;;;;;;55.10;29.80;;;;;;;-1.52;100.00;99922.19;106075;1287;59051;-73
2022/11/30 06:43:12;;;;;;;55.50;30.30;;;;;;;-1.49;100.00;99927.92;106048;1282;58936;-72
2022/11/30 06:45:38;;;;;;;58.20;30.00;;;;;;;-1.45;100.00;99928.45;106032;1283;58856;-72
2022/11/30 06:48:04;;;;;;;56.70;30.30;;;;;;;-1.42;100.00;99929.30;105798;1294;59073;-73
2022/11/30 06:50:31;;;;;;;57.50;30.70;;;;;;;-1.40;100.00;99925.81;106056;1289;58863;-73
2022/11/30 06:52:57;;;;;;;63.10;33.80;;;;;;;-1.37;100.00;99925.09;106061;1281;58998;-72
2022/11/30 06:55:23;;;;;;;54.70;32.00;;;;;;;-1.34;100.00;99929.80;105329;1281;1002288;-73
2022/11/30 06:57:50;;;;;;;65.20;39.90;;;;;;;-1.34;100.00;99928.58;106046;1291;58983;-72
2022/11/30 07:00:17;;;;;;;59.30;33.80;;;;;;;-1.32;100.00;99932.74;106049;1289;59059;-72
2022/11/30 07:02:43;;;;;;;57.60;30.20;;;;;;;-1.32;100.00;99931.34;105779;1285;58961;-73
2022/11/30 07:05:10;;;;;;;65.30;34.70;;;;;;;-1.31;100.00;99934.14;105891;1290;58895;-73
2022/11/30 07:07:36;;;;;;;59.50;33.40;;;;;;;-1.31;100.00;99936.76;106058;1289;58942;-72
2022/11/30 07:10:02;;;;;;;58.40;32.40;;;;;;;-1.29;100.00;99936.75;106048;1288;58835;-73
2022/11/30 07:12:28;;;;;;;64.80;33.90;;;;;;;-1.26;100.00;99939.53;106063;1287;59257;-73
2022/11/30 07:14:57;;;;;;;55.40;31.90;;;;;;;-1.23;100.00;99938.64;106049;1289;59050;-73
2022/11/30 07:17:22;;;;;;;57.50;31.10;;;;;;;-1.21;100.00;99935.14;106027;1288;64121;-73
2022/11/30 07:19:48;;;;;;;54.30;31.90;;;;;;;-1.22;100.00;99941.94;106061;1289;58942;-72
2022/11/30 07:22:14;;;;;;;53.90;29.90;;;;;;;-1.23;100.00;99944.92;106058;1281;58795;-72
2022/11/30 07:27:25;;;;;;;49.90;28.10;;;;;;;-1.28;100.00;99947.73;106044;1285;67569;-73
2022/11/30 07:29:52;;;;;;;50.50;28.60;;;;;;;-1.30;100.00;99947.04;106048;1284;59358;-72
2022/11/30 07:32:18;;;;;;;52.60;29.70;;;;;;;-1.30;100.00;99950.69;106055;1281;58866;-72
2022/11/30 07:34:45;;;;;;;54.40;29.00;;;;;;;-1.30;100.00;99948.77;106042;1286;58897;-73
2022/11/30 07:37:11;;;;;;;55.60;30.60;;;;;;;-1.30;100.00;99948.96;106064;1289;58880;-72
2022/11/30 07:39:37;;;;;;;50.30;29.00;;;;;;;-1.28;100.00;99948.94;106046;1287;58967;-72
2022/11/30 07:42:03;;;;;;;49.30;31.50;;;;;;;-1.26;100.00;99948.41;106036;1281;59399;-72
2022/11/30 07:44:29;;;;;;;56.20;32.00;;;;;;;-1.25;100.00;99947.70;106062;1288;58923;-73
2022/11/30 07:46:55;;;;;;;50.50;29.00;;;;;;;-1.26;100.00;99944.58;106044;1281;59757;-73
2022/11/30 07:49:21;;;;;;;49.60;30.00;;;;;;;-1.28;100.00;99947.55;106049;1288;58871;-73
2022/11/30 07:51:47;;;;;;;50.90;28.60;;;;;;;-1.30;100.00;99950.70;106040;1281;58920;-72
2022/11/30 07:54:13;;;;;;;51.30;29.20;;;;;;;-1.31;100.00;99951.58;105350;1289;1002979;-73
2022/11/30 07:56:40;;;;;;;48.10;28.80;;;;;;;-1.35;100.00;99950.54;106054;1288;58789;-73
2022/11/30 07:59:06;;;;;;;51.30;31.70;;;;;;;-1.38;100.00;99947.24;106038;1296;59017;-73
2022/11/30 08:01:32;;;;;;;52.90;29.20;;;;;;;-1.40;100.00;99948.10;106046;1289;59046;-73
2022/11/30 08:03:59;;;;;;;50.60;29.70;;;;;;;-1.39;100.00;99947.94;106080;1288;59017;-72
2022/11/30 08:06:29;;;;;;;58.10;32.10;;;;;;;-1.41;100.00;99941.48;106073;1283;58985;-73
2022/11/30 08:09:00;;;;;;;55.40;31.10;;;;;;;-1.41;100.00;99939.58;106065;1288;58917;-73
2022/11/30 08:11:30;;;;;;;58.20;32.40;;;;;;;-1.38;100.00;99940.44;106070;1288;66120;-72
2022/11/30 08:13:56;;;;;;;57.60;34.90;;;;;;;-1.36;100.00;99940.09;106084;1287;59923;-73
2022/11/30 08:16:25;;;;;;;50.00;30.70;;;;;;;-1.32;100.00;99937.10;106045;1288;58909;-72
2022/11/30 08:18:51;;;;;;;55.40;31.20;;;;;;;-1.30;100.00;99934.32;106040;1288;60684;-73
2022/11/30 08:21:20;;;;;;;54.50;30.90;;;;;;;-1.29;100.00;99933.78;106065;1287;58826;-75
2022/11/30 08:23:51;;;;;;;56.50;31.90;;;;;;;-1.27;100.00;99937.09;106031;1281;64797;-74
2022/11/30 08:26:24;;;;;;;55.60;32.60;;;;;;;-1.23;100.00;99935.49;105893;1284;66710;-75
2022/11/30 08:28:51;;;;;;;51.70;30.50;;;;;;;-1.19;100.00;99936.70;106042;1281;65128;-76
2022/11/30 08:31:24;;;;;;;51.60;29.70;;;;;;;-1.15;100.00;99936.52;106083;1289;58926;-75
2022/11/30 08:33:55;;;;;;;53.10;31.30;;;;;;;-1.10;100.00;99939.11;106043;1282;58764;-75
2022/11/30 08:36:23;;;;;;;59.70;33.50;;;;;;;-1.07;100.00;99936.83;106032;1288;67069;-76
2022/11/30 08:38:49;;;;;;;53.80;31.70;;;;;;;-1.05;100.00;99938.39;105884;1291;61090;-75
2022/11/30 08:41:18;;;;;;;51.30;30.50;;;;;;;-1.06;100.00;99946.41;106046;1289;59023;-76
2022/11/30 08:43:44;;;;;;;50.60;29.60;;;;;;;-1.09;100.00;99949.05;106043;1281;58927;-75
2022/11/30 08:46:12;;;;;;;44.20;28.00;;;;;;;-1.09;100.00;99949.21;106063;1283;58757;-75
2022/11/30 08:48:38;;;;;;;50.30;29.80;;;;;;;-1.05;100.00;99952.69;106070;1287;66919;-75
2022/11/30 08:51:07;;;;;;;47.70;28.90;;;;;;;-1.00;100.00;99956.14;106072;1288;59149;-75
2022/11/30 08:53:33;;;;;;;47.10;27.60;;;;;;;-0.96;100.00;99959.96;106046;1288;64224;-75
2022/11/30 08:56:02;;;;;;;51.40;31.70;;;;;;;-0.96;100.00;99961.54;106050;1288;59022;-75
2022/11/30 08:58:34;;;;;;;50.10;32.10;;;;;;;-0.95;100.00;99958.92;106051;1288;60277;-74
2022/11/30 09:01:12;;;;;;;54.00;30.90;;;;;;;-0.93;100.00;99960.31;103655;1291;1006456;-75
2022/11/30 09:03:40;;;;;;;45.90;29.70;;;;;;;-0.93;100.00;99956.64;105799;1292;59852;-85
2022/11/30 09:06:14;;;;;;;48.80;29.50;;;;;;;-0.95;100.00;99966.25;105839;1289;74116;-85
2022/11/30 09:08:42;;;;;;;50.70;31.70;;;;;;;-0.96;100.00;99965.38;105904;1298;59147;-84
2022/11/30 09:11:08;;;;;;;46.90;29.10;;;;;;;-0.95;100.00;99965.02;105865;1290;59020;-84
2022/11/30 09:13:35;;;;;;;48.20;29.80;;;;;;;-0.98;100.00;99959.98;105879;1283;58960;-84
2022/11/30 09:16:01;;;;;;;38.30;24.90;;;;;;;-0.99;100.00;99966.45;105607;1293;59125;-83
2022/11/30 09:18:28;;;;;;;40.30;26.40;;;;;;;-1.01;100.00;99966.95;105924;1291;58966;-83
2022/11/30 09:21:01;;;;;;;43.70;28.50;;;;;;;-1.00;100.00;99965.39;105937;1289;58998;-82
2022/11/30 09:23:28;;;;;;;46.90;29.80;;;;;;;-1.03;100.00;99967.85;105932;1290;59213;-83
2022/11/30 09:26:01;;;;;;;46.50;28.90;;;;;;;-1.03;100.00;99967.16;105965;1291;74745;-83
2022/11/30 09:28:29;;;;;;;45.20;28.50;;;;;;;-1.01;100.00;99965.58;105916;1291;68006;-83
2022/11/30 09:31:13;;;;;;;46.90;27.20;;;;;;;-1.00;100.00;99968.36;105781;1292;63757;-83
2022/11/30 09:33:40;;;;;;;42.90;25.80;;;;;;;-0.98;100.00;99969.05;105902;1282;58984;-82
2022/11/30 09:36:31;;;;;;;41.70;27.00;;;;;;;-0.97;100.00;99964.70;105691;1294;59261;-80
2022/11/30 09:38:57;;;;;;;45.20;26.70;;;;;;;-0.98;100.00;99964.86;105908;1290;67285;-81
2022/11/30 09:42:01;;;;;;;40.90;24.70;;;;;;;-0.99;100.00;99961.92;105919;1286;58906;-80
2022/11/30 09:44:39;;;;;;;46.20;28.10;;;;;;;-0.99;100.00;99964.35;105912;1290;64983;-80
2022/11/30 09:47:22;;;;;;;43.70;27.50;;;;;;;-1.01;100.00;99963.14;105905;1290;59219;-80
2022/11/30 09:49:48;;;;;;;42.80;26.60;;;;;;;-1.04;100.00;99962.10;105784;1291;58879;-80
2022/11/30 09:52:32;;;;;;;51.30;31.20;;;;;;;-1.04;100.00;99962.63;105936;1290;59132;-80
2022/11/30 09:55:05;;;;;;;45.60;27.50;;;;;;;-1.00;100.00;99959.64;105916;1283;69015;-79
2022/11/30 09:57:44;;;;;;;42.50;25.60;;;;;;;-1.00;100.00;99958.95;105902;1291;64994;-80
2022/11/30 10:00:21;;;;;;;44.80;27.60;;;;;;;-1.02;100.00;99959.82;105919;1292;58941;-78
2022/11/30 10:02:50;;;;;;;43.80;26.90;;;;;;;-1.05;100.00;99955.66;105952;1290;58869;-79
2022/11/30 10:05:19;;;;;;;48.80;29.50;;;;;;;-1.07;100.00;99957.06;105951;1283;66021;-79
2022/11/30 10:07:49;;;;;;;44.50;28.40;;;;;;;-1.07;100.00;99956.88;106001;1290;58917;-80
2022/11/30 10:10:32;;;;;;;46.20;29.30;;;;;;;-1.09;100.00;99954.80;105992;1291;73561;-80
2022/11/30 10:12:58;;;;;;;42.20;27.00;;;;;;;-1.09;100.00;99948.52;106012;1285;58949;-79
2022/11/30 10:15:33;;;;;;;44.10;27.40;;;;;;;-1.09;100.00;99950.44;105939;1283;58879;-79
2022/11/30 10:18:16;;;;;;;42.70;26.00;;;;;;;-1.09;100.00;99949.91;105926;1290;65714;-79
2022/11/30 10:21:12;;;;;;;40.50;26.20;;;;;;;-1.09;100.00;99948.52;105936;1291;60026;-80
2022/11/30 10:24:01;;;;;;;42.00;25.90;;;;;;;-1.05;100.00;99948.33;105908;1289;73764;-79
2022/11/30 10:26:37;;;;;;;41.80;27.40;;;;;;;-1.03;100.00;99945.88;105921;1290;59246;-79
2022/11/30 10:29:23;;;;;;;41.40;27.50;;;;;;;-1.01;100.00;99944.65;105909;1283;58961;-79
2022/11/30 10:31:56;;;;;;;44.00;28.00;;;;;;;-0.99;100.00;99945.68;105931;1289;67213;-79
2022/11/30 10:34:33;;;;;;;41.70;27.60;;;;;;;-0.96;100.00;99946.19;105943;1290;69874;-79
2022/11/30 10:37:09;;;;;;;43.30;28.30;;;;;;;-0.97;100.00;99942.72;105912;1283;73715;-78
2022/11/30 10:39:43;;;;;;;44.90;27.70;;;;;;;-0.97;100.00;99941.49;105931;1290;58988;-80
2022/11/30 10:42:17;;;;;;;44.20;28.60;;;;;;;-0.95;100.00;99940.95;105692;1294;58993;-77
2022/11/30 10:44:56;;;;;;;37.50;23.60;;;;;;;-0.91;100.00;99941.27;105912;1290;67039;-76
2022/11/30 10:47:27;;;;;;;36.10;23.90;;;;;;;-0.88;100.00;99940.20;105574;1293;166212;-78
2022/11/30 10:49:55;;;;;;;40.70;24.60;;;;;;;-0.87;100.00;99937.42;105924;1287;62710;-76
2022/11/30 10:52:25;;;;;;;39.40;26.10;;;;;;;-0.87;100.00;99937.41;105919;1291;59105;-76
2022/11/30 10:54:53;;;;;;;38.20;24.70;;;;;;;-0.86;100.00;99942.30;105938;1291;58907;-76
2022/11/30 10:57:25;;;;;;;39.90;24.50;;;;;;;-0.85;100.00;99945.08;105777;1293;64723;-76
2022/11/30 10:59:52;;;;;;;;;;;;;;;-0.85;100.00;99942.66;105965;1290;61348;-76
2022/11/30 11:02:43;;;;;;;42.30;26.10;;;;;;;-0.88;100.00;99941.79;105927;1290;72323;-76
2022/11/30 11:05:18;;;;;;;43.40;25.90;;;;;;;-0.90;100.00;99944.07;105936;1289;58953;-76
2022/11/30 11:07:49;;;;;;;42.90;27.60;;;;;;;-0.91;100.00;99948.61;105789;1292;58933;-76
2022/11/30 11:10:18;;;;;;;36.60;24.50;;;;;;;-0.92;100.00;99951.07;105774;1283;65752;-78
2022/11/30 11:12:54;;;;;;;47.20;28.80;;;;;;;-0.92;100.00;99945.30;105937;1290;61072;-76